createdAt,value
2023-01-28T00:00:46.587Z,1023.23
2023-01-28T00:01:46.578Z,1023.30
2023-01-28T00:02:46.635Z,1023.26
2023-01-28T00:03:46.603Z,1023.33
2023-01-28T00:04:46.553Z,1023.30
2023-01-28T00:05:46.536Z,1023.31
2023-01-28T00:06:46.534Z,1023.31
2023-01-28T00:07:46.519Z,1023.31
2023-01-28T00:08:46.524Z,1023.29
2023-01-28T00:09:46.513Z,1023.36
2023-01-28T00:10:46.490Z,1023.38
2023-01-28T00:11:46.476Z,1023.39
2023-01-28T00:12:46.456Z,1023.38
2023-01-28T00:13:46.467Z,1023.40
2023-01-28T00:14:46.457Z,1023.40
2023-01-28T00:15:46.445Z,1023.42
2023-01-28T00:16:46.416Z,1023.47
2023-01-28T00:17:46.468Z,1023.38
2023-01-28T00:18:46.387Z,1023.35
2023-01-28T00:19:46.393Z,1023.33
2023-01-28T00:20:46.398Z,1023.30
2023-01-28T00:21:46.367Z,1023.28
2023-01-28T00:22:46.356Z,1023.38
2023-01-28T00:23:46.347Z,1023.29
2023-01-28T00:24:46.328Z,1023.33
2023-01-28T00:25:46.318Z,1023.31
2023-01-28T00:26:46.336Z,1023.33
2023-01-28T00:27:46.298Z,1023.28
2023-01-28T00:28:46.306Z,1023.26
2023-01-28T00:29:46.279Z,1023.23
2023-01-28T00:30:46.335Z,1023.26
2023-01-28T00:31:46.304Z,1023.29
2023-01-28T00:32:46.255Z,1023.24
2023-01-28T00:33:46.245Z,1023.30
2023-01-28T00:34:46.225Z,1023.31
2023-01-28T00:35:46.228Z,1023.30
2023-01-28T00:36:46.197Z,1023.29
2023-01-28T00:37:46.187Z,1023.27
2023-01-28T00:38:46.177Z,1023.33
2023-01-28T00:39:46.166Z,1023.33
2023-01-28T00:40:46.176Z,1023.39
2023-01-28T00:41:46.187Z,1023.41
2023-01-28T00:42:46.137Z,1023.40
2023-01-28T00:43:46.142Z,1023.40
2023-01-28T00:44:46.118Z,1023.47
2023-01-28T00:45:48.503Z,1023.46
2023-01-28T00:46:46.117Z,1023.38
2023-01-28T00:47:46.084Z,1023.42
2023-01-28T00:48:46.076Z,1023.43
2023-01-28T00:49:46.069Z,1023.43
2023-01-28T00:50:46.047Z,1023.42
2023-01-28T00:51:46.060Z,1023.46
2023-01-28T00:52:46.056Z,1023.42
2023-01-28T00:53:46.033Z,1023.44
2023-01-28T00:54:46.038Z,1023.44
2023-01-28T00:55:46.007Z,1023.40
2023-01-28T00:56:45.998Z,1023.44
2023-01-28T00:57:45.979Z,1023.45
2023-01-28T00:58:46.016Z,1023.42
2023-01-28T00:59:45.956Z,1023.41
2023-01-28T01:00:45.946Z,1023.35
2023-01-28T01:01:45.998Z,1023.39
2023-01-28T01:02:46.023Z,1023.36
2023-01-28T01:03:45.934Z,1023.41
2023-01-28T01:04:45.932Z,1023.39
2023-01-28T01:05:45.895Z,1023.41
2023-01-28T01:06:45.886Z,1023.40
2023-01-28T01:07:45.878Z,1023.43
2023-01-28T01:08:45.857Z,1023.47
2023-01-28T01:09:45.846Z,1023.45
2023-01-28T01:10:45.860Z,1023.47
2023-01-28T01:11:45.825Z,1023.47
2023-01-28T01:12:45.817Z,1023.53
2023-01-28T01:13:45.811Z,1023.52
2023-01-28T01:14:45.794Z,1023.52
2023-01-28T01:15:45.873Z,1023.53
2023-01-28T01:16:45.779Z,1023.48
2023-01-28T01:17:45.767Z,1023.44
2023-01-28T01:18:45.767Z,1023.43
2023-01-28T01:19:45.766Z,1023.44
2023-01-28T01:20:45.733Z,1023.45
2023-01-28T01:21:45.725Z,1023.52
2023-01-28T01:22:45.713Z,1023.45
2023-01-28T01:23:45.704Z,1023.48
2023-01-28T01:24:45.717Z,1023.46
2023-01-28T01:25:45.676Z,1023.48
2023-01-28T01:26:45.711Z,1023.50
2023-01-28T01:27:45.658Z,1023.51
2023-01-28T01:28:45.649Z,1023.48
2023-01-28T01:29:45.656Z,1023.43
2023-01-28T01:30:45.632Z,1023.47
2023-01-28T01:31:45.635Z,1023.51
2023-01-28T01:32:45.606Z,1023.50
2023-01-28T01:33:45.598Z,1023.54
2023-01-28T01:34:45.599Z,1023.55
2023-01-28T01:35:45.598Z,1023.53
2023-01-28T01:36:45.571Z,1023.54
2023-01-28T01:37:45.558Z,1023.60
2023-01-28T01:38:45.555Z,1023.53
2023-01-28T01:39:45.527Z,1023.52
2023-01-28T01:40:45.518Z,1023.53
2023-01-28T01:41:45.528Z,1023.57
2023-01-28T01:42:45.497Z,1023.57
2023-01-28T01:43:45.486Z,1023.58
2023-01-28T01:44:45.483Z,1023.55
2023-01-28T01:45:45.585Z,1023.53
2023-01-28T01:46:45.476Z,1023.51
2023-01-28T01:47:45.445Z,1023.54
2023-01-28T01:48:45.471Z,1023.53
2023-01-28T01:49:45.424Z,1023.57
2023-01-28T01:50:45.424Z,1023.49
2023-01-28T01:51:45.424Z,1023.57
2023-01-28T01:52:45.412Z,1023.56
2023-01-28T01:53:45.385Z,1023.54
2023-01-28T01:54:45.377Z,1023.53
2023-01-28T01:55:45.356Z,1023.52
2023-01-28T01:56:45.360Z,1023.55
2023-01-28T01:57:45.371Z,1023.54
2023-01-28T01:58:45.327Z,1023.55
2023-01-28T01:59:45.318Z,1023.54
2023-01-28T02:00:45.305Z,1023.54
2023-01-28T02:01:45.315Z,1023.56
2023-01-28T02:02:45.286Z,1023.54
2023-01-28T02:03:45.376Z,1023.49
2023-01-28T02:04:45.277Z,1023.53
2023-01-28T02:05:45.255Z,1023.48
2023-01-28T02:06:45.246Z,1023.53
2023-01-28T02:07:45.227Z,1023.54
2023-01-28T02:08:45.255Z,1023.54
2023-01-28T02:09:45.215Z,1023.59
2023-01-28T02:10:45.215Z,1023.60
2023-01-28T02:11:45.185Z,1023.56
2023-01-28T02:12:45.175Z,1023.61
2023-01-28T02:13:45.198Z,1023.64
2023-01-28T02:14:45.157Z,1023.66
2023-01-28T02:15:45.137Z,1023.63
2023-01-28T02:16:45.163Z,1023.64
2023-01-28T02:17:45.146Z,1023.61
2023-01-28T02:18:45.134Z,1023.65
2023-01-28T02:19:45.127Z,1023.60
2023-01-28T02:20:45.107Z,1023.58
2023-01-28T02:21:45.077Z,1023.60
2023-01-28T02:22:45.069Z,1023.57
2023-01-28T02:23:45.066Z,1023.60
2023-01-28T02:24:45.053Z,1023.58
2023-01-28T02:25:45.065Z,1023.62
2023-01-28T02:26:45.035Z,1023.58
2023-01-28T02:27:45.015Z,1023.60
2023-01-28T02:28:45.007Z,1023.63
2023-01-28T02:29:45.000Z,1023.64
2023-01-28T02:30:45.072Z,1023.65
2023-01-28T02:31:45.029Z,1023.67
2023-01-28T02:32:44.964Z,1023.66
2023-01-28T02:33:44.962Z,1023.61
2023-01-28T02:34:44.944Z,1023.62
2023-01-28T02:35:44.954Z,1023.61
2023-01-28T02:36:44.916Z,1023.60
2023-01-28T02:37:44.907Z,1023.57
2023-01-28T02:38:44.906Z,1023.58
2023-01-28T02:39:44.887Z,1023.59
2023-01-28T02:40:44.902Z,1023.54
2023-01-28T02:41:44.869Z,1023.54
2023-01-28T02:42:44.865Z,1023.53
2023-01-28T02:43:44.849Z,1023.42
2023-01-28T02:44:44.841Z,1023.50
2023-01-28T02:45:44.847Z,1023.48
2023-01-28T02:46:44.838Z,1023.48
2023-01-28T02:47:44.817Z,1023.48
2023-01-28T02:48:44.787Z,1023.44
2023-01-28T02:49:44.777Z,1023.48
2023-01-28T02:50:44.777Z,1023.51
2023-01-28T02:51:44.786Z,1023.54
2023-01-28T02:52:44.758Z,1023.46
2023-01-28T02:53:44.743Z,1023.54
2023-01-28T02:54:44.727Z,1023.53
2023-01-28T02:55:44.735Z,1023.55
2023-01-28T02:56:44.752Z,1023.51
2023-01-28T02:57:44.725Z,1023.55
2023-01-28T02:58:44.687Z,1023.57
2023-01-28T02:59:44.682Z,1023.57
2023-01-28T03:00:44.666Z,1023.56
2023-01-28T03:01:44.755Z,1023.57
2023-01-28T03:02:44.780Z,1023.58
2023-01-28T03:03:44.658Z,1023.59
2023-01-28T03:04:44.657Z,1023.53
2023-01-28T03:05:44.615Z,1023.54
2023-01-28T03:06:44.592Z,1023.55
2023-01-28T03:07:44.589Z,1023.50
2023-01-28T03:08:44.604Z,1023.56
2023-01-28T03:09:44.565Z,1023.51
2023-01-28T03:10:44.573Z,1023.52
2023-01-28T03:11:44.546Z,1023.54
2023-01-28T03:12:44.542Z,1023.54
2023-01-28T03:13:44.547Z,1023.52
2023-01-28T03:14:44.518Z,1023.55
2023-01-28T03:15:44.586Z,1023.54
2023-01-28T03:16:44.496Z,1023.49
2023-01-28T03:17:44.520Z,1023.54
2023-01-28T03:18:44.473Z,1023.50
2023-01-28T03:19:44.475Z,1023.53
2023-01-28T03:20:44.449Z,1023.54
2023-01-28T03:21:44.436Z,1023.52
2023-01-28T03:22:44.441Z,1023.48
2023-01-28T03:23:44.447Z,1023.57
2023-01-28T03:24:44.413Z,1023.58
2023-01-28T03:25:44.395Z,1023.56
2023-01-28T03:26:44.386Z,1023.58
2023-01-28T03:27:44.376Z,1023.59
2023-01-28T03:28:44.365Z,1023.59
2023-01-28T03:29:44.375Z,1023.60
2023-01-28T03:30:44.406Z,1023.56
2023-01-28T03:31:44.360Z,1023.56
2023-01-28T03:32:44.325Z,1023.58
2023-01-28T03:33:44.328Z,1023.56
2023-01-28T03:34:44.307Z,1023.60
2023-01-28T03:35:44.323Z,1023.57
2023-01-28T03:36:44.285Z,1023.64
2023-01-28T03:37:44.277Z,1023.60
2023-01-28T03:38:44.267Z,1023.58
2023-01-28T03:39:44.302Z,1023.56
2023-01-28T03:40:44.243Z,1023.48
2023-01-28T03:41:44.252Z,1023.49
2023-01-28T03:42:44.225Z,1023.48
2023-01-28T03:43:44.207Z,1023.49
2023-01-28T03:44:44.208Z,1023.56
2023-01-28T03:45:44.185Z,1023.58
2023-01-28T03:46:44.195Z,1023.60
2023-01-28T03:47:44.171Z,1023.58
2023-01-28T03:48:44.155Z,1023.60
2023-01-28T03:49:44.151Z,1023.60
2023-01-28T03:50:44.136Z,1023.60
2023-01-28T03:51:44.141Z,1023.62
2023-01-28T03:52:44.115Z,1023.59
2023-01-28T03:53:44.122Z,1023.58
2023-01-28T03:54:44.086Z,1023.59
2023-01-28T03:55:44.090Z,1023.57
2023-01-28T03:56:44.086Z,1023.63
2023-01-28T03:57:44.053Z,1023.56
2023-01-28T03:58:44.053Z,1023.66
2023-01-28T03:59:44.038Z,1023.60
2023-01-28T04:00:44.033Z,1023.62
2023-01-28T04:01:44.091Z,1023.66
2023-01-28T04:02:44.084Z,1023.65
2023-01-28T04:03:43.995Z,1023.63
2023-01-28T04:04:43.977Z,1023.68
2023-01-28T04:05:43.974Z,1023.64
2023-01-28T04:06:43.963Z,1023.63
2023-01-28T04:07:43.970Z,1023.68
2023-01-28T04:08:43.937Z,1023.68
2023-01-28T04:09:43.933Z,1023.63
2023-01-28T04:10:43.918Z,1023.65
2023-01-28T04:11:43.944Z,1023.67
2023-01-28T04:12:43.895Z,1023.68
2023-01-28T04:13:43.894Z,1023.70
2023-01-28T04:14:43.874Z,1023.73
2023-01-28T04:15:43.875Z,1023.79
2023-01-28T04:16:43.853Z,1023.82
2023-01-28T04:17:43.868Z,1023.84
2023-01-28T04:18:43.868Z,1023.78
2023-01-28T04:19:43.821Z,1023.81
2023-01-28T04:20:43.807Z,1023.81
2023-01-28T04:21:43.803Z,1023.82
2023-01-28T04:22:43.807Z,1023.83
2023-01-28T04:23:43.812Z,1023.84
2023-01-28T04:24:43.775Z,1023.85
2023-01-28T04:25:43.753Z,1023.82
2023-01-28T04:26:43.748Z,1023.82
2023-01-28T04:27:43.739Z,1023.76
2023-01-28T04:28:43.728Z,1023.81
2023-01-28T04:29:43.745Z,1023.77
2023-01-28T04:30:43.716Z,1023.83
2023-01-28T04:31:43.724Z,1023.84
2023-01-28T04:32:43.691Z,1023.93
2023-01-28T04:33:43.674Z,1023.89
2023-01-28T04:34:43.663Z,1023.87
2023-01-28T04:35:43.676Z,1023.93
2023-01-28T04:36:43.651Z,1023.91
2023-01-28T04:37:43.636Z,1023.88
2023-01-28T04:38:43.617Z,1023.90
2023-01-28T04:39:43.745Z,1023.86
2023-01-28T04:40:43.615Z,1023.83
2023-01-28T04:41:43.616Z,1023.86
2023-01-28T04:42:43.588Z,1023.85
2023-01-28T04:43:45.885Z,1023.84
2023-01-28T04:44:43.585Z,1023.81
2023-01-28T04:45:43.545Z,1023.77
2023-01-28T04:46:43.681Z,1023.77
2023-01-28T04:47:43.545Z,1023.80
2023-01-28T04:48:43.519Z,1023.77
2023-01-28T04:49:43.504Z,1023.79
2023-01-28T04:50:43.515Z,1023.76
2023-01-28T04:51:43.490Z,1023.78
2023-01-28T04:52:43.487Z,1023.77
2023-01-28T04:53:43.491Z,1023.72
2023-01-28T04:54:43.465Z,1023.74
2023-01-28T04:55:43.444Z,1023.73
2023-01-28T04:56:43.427Z,1023.80
2023-01-28T04:57:43.416Z,1023.76
2023-01-28T04:58:43.405Z,1023.78
2023-01-28T04:59:43.418Z,1023.76
2023-01-28T05:00:43.430Z,1023.80
2023-01-28T05:01:43.435Z,1023.78
2023-01-28T05:02:43.401Z,1023.73
2023-01-28T05:03:43.355Z,1023.78
2023-01-28T05:04:43.346Z,1023.73
2023-01-28T05:05:43.335Z,1023.77
2023-01-28T05:06:43.344Z,1023.81
2023-01-28T05:07:43.305Z,1023.79
2023-01-28T05:08:43.303Z,1023.72
2023-01-28T05:09:43.313Z,1023.73
2023-01-28T05:10:43.290Z,1023.73
2023-01-28T05:11:43.265Z,1023.73
2023-01-28T05:12:43.256Z,1023.75
2023-01-28T05:13:43.253Z,1023.72
2023-01-28T05:14:43.235Z,1023.76
2023-01-28T05:15:43.271Z,1023.73
2023-01-28T05:16:43.213Z,1023.72
2023-01-28T05:17:43.264Z,1023.75
2023-01-28T05:18:44.846Z,1023.73
2023-01-28T05:19:43.185Z,1023.74
2023-01-28T05:20:43.164Z,1023.75
2023-01-28T05:21:43.185Z,1023.71
2023-01-28T05:22:43.144Z,1023.76
2023-01-28T05:23:43.164Z,1023.76
2023-01-28T05:24:43.137Z,1023.77
2023-01-28T05:25:43.174Z,1023.76
2023-01-28T05:26:43.106Z,1023.80
2023-01-28T05:27:43.103Z,1023.84
2023-01-28T05:28:43.083Z,1023.79
2023-01-28T05:29:43.085Z,1023.84
2023-01-28T05:30:43.122Z,1023.89
2023-01-28T05:31:43.055Z,1023.91
2023-01-28T05:32:43.072Z,1023.91
2023-01-28T05:33:43.050Z,1023.98
2023-01-28T05:34:43.039Z,1023.99
2023-01-28T05:35:43.015Z,1023.94
2023-01-28T05:36:43.029Z,1024.00
2023-01-28T05:37:42.994Z,1024.02
2023-01-28T05:38:42.997Z,1023.94
2023-01-28T05:39:42.975Z,1023.97
2023-01-28T05:40:42.952Z,1024.03
2023-01-28T05:41:42.947Z,1024.02
2023-01-28T05:42:42.963Z,1024.06
2023-01-28T05:43:42.954Z,1024.08
2023-01-28T05:44:42.913Z,1024.09
2023-01-28T05:45:42.914Z,1024.04
2023-01-28T05:46:42.903Z,1023.96
2023-01-28T05:47:44.884Z,1023.91
2023-01-28T05:48:42.905Z,1023.86
2023-01-28T05:49:42.875Z,1023.93
2023-01-28T05:50:42.853Z,1023.88
2023-01-28T05:51:42.850Z,1023.92
2023-01-28T05:52:42.864Z,1023.95
2023-01-28T05:53:42.847Z,1023.88
2023-01-28T05:54:42.825Z,1023.91
2023-01-28T05:55:42.795Z,1023.86
2023-01-28T05:56:42.802Z,1023.85
2023-01-28T05:57:42.817Z,1023.80
2023-01-28T05:58:42.796Z,1023.83
2023-01-28T05:59:42.764Z,1023.76
2023-01-28T06:00:42.744Z,1023.79
2023-01-28T06:01:42.752Z,1023.82
2023-01-28T06:02:50.511Z,1023.83
2023-01-28T06:03:42.734Z,1023.84
2023-01-28T06:04:42.721Z,1023.76
2023-01-28T06:05:42.726Z,1023.87
2023-01-28T06:06:42.699Z,1023.91
2023-01-28T06:07:42.679Z,1023.90
2023-01-28T06:08:42.663Z,1023.92
2023-01-28T06:09:42.675Z,1023.91
2023-01-28T06:10:42.647Z,1023.90
2023-01-28T06:11:42.645Z,1023.91
2023-01-28T06:12:42.631Z,1023.92
2023-01-28T06:13:42.612Z,1023.93
2023-01-28T06:14:42.610Z,1023.98
2023-01-28T06:15:42.651Z,1023.93
2023-01-28T06:16:42.586Z,1023.94
2023-01-28T06:17:42.564Z,1023.95
2023-01-28T06:18:42.567Z,1023.82
2023-01-28T06:19:42.548Z,1023.89
2023-01-28T06:20:42.553Z,1023.88
2023-01-28T06:21:42.544Z,1023.93
2023-01-28T06:22:42.513Z,1023.90
2023-01-28T06:23:42.538Z,1023.93
2023-01-28T06:24:42.510Z,1023.91
2023-01-28T06:25:42.480Z,1023.94
2023-01-28T06:26:42.472Z,1023.86
2023-01-28T06:27:42.469Z,1023.85
2023-01-28T06:28:42.479Z,1023.85
2023-01-28T06:29:42.434Z,1023.83
2023-01-28T06:30:42.484Z,1023.89
2023-01-28T06:31:42.414Z,1023.88
2023-01-28T06:32:42.424Z,1023.89
2023-01-28T06:33:42.421Z,1023.93
2023-01-28T06:34:42.547Z,1023.88
2023-01-28T06:35:42.374Z,1023.91
2023-01-28T06:36:42.369Z,1023.88
2023-01-28T06:37:42.374Z,1023.89
2023-01-28T06:38:42.373Z,1023.86
2023-01-28T06:39:42.332Z,1023.89
2023-01-28T06:40:42.332Z,1023.86
2023-01-28T06:41:42.310Z,1023.84
2023-01-28T06:42:42.305Z,1023.85
2023-01-28T06:43:42.291Z,1023.86
2023-01-28T06:44:42.305Z,1023.88
2023-01-28T06:45:42.265Z,1023.86
2023-01-28T06:46:42.308Z,1023.86
2023-01-28T06:47:42.250Z,1023.86
2023-01-28T06:48:42.246Z,1023.88
2023-01-28T06:49:42.260Z,1023.94
2023-01-28T06:50:42.225Z,1023.90
2023-01-28T06:51:42.213Z,1023.88
2023-01-28T06:52:42.192Z,1023.85
2023-01-28T06:53:42.266Z,1023.88
2023-01-28T06:54:42.202Z,1023.87
2023-01-28T06:55:42.161Z,1023.86
2023-01-28T06:56:42.162Z,1023.90
2023-01-28T06:57:42.150Z,1023.98
2023-01-28T06:58:42.164Z,1023.99
2023-01-28T06:59:42.142Z,1024.03
2023-01-28T07:00:42.112Z,1023.99
2023-01-28T07:01:42.128Z,1023.98
2023-01-28T07:02:42.152Z,1024.03
2023-01-28T07:03:42.084Z,1024.09
2023-01-28T07:04:42.088Z,1024.10
2023-01-28T07:05:42.071Z,1024.08
2023-01-28T07:06:42.046Z,1024.07
2023-01-28T07:07:42.357Z,1024.07
2023-01-28T07:08:42.041Z,1024.06
2023-01-28T07:09:42.024Z,1024.10
2023-01-28T07:10:42.038Z,1024.19
2023-01-28T07:11:41.997Z,1024.21
2023-01-28T07:12:41.997Z,1024.21
2023-01-28T07:13:41.975Z,1024.18
2023-01-28T07:14:41.974Z,1024.16
2023-01-28T07:15:41.998Z,1024.10
2023-01-28T07:16:41.943Z,1024.11
2023-01-28T07:17:41.939Z,1024.09
2023-01-28T07:18:41.941Z,1024.14
2023-01-28T07:19:41.913Z,1024.17
2023-01-28T07:20:41.930Z,1024.17
2023-01-28T07:21:41.903Z,1024.19
2023-01-28T07:22:41.905Z,1024.19
2023-01-28T07:23:41.865Z,1024.19
2023-01-28T07:24:41.869Z,1024.22
2023-01-28T07:25:41.852Z,1024.20
2023-01-28T07:26:41.875Z,1024.19
2023-01-28T07:27:41.831Z,1024.13
2023-01-28T07:28:41.830Z,1024.15
2023-01-28T07:29:41.847Z,1024.15
2023-01-28T07:30:41.832Z,1024.18
2023-01-28T07:31:41.867Z,1024.18
2023-01-28T07:32:41.780Z,1024.21
2023-01-28T07:33:41.763Z,1024.21
2023-01-28T07:34:41.763Z,1024.24
2023-01-28T07:35:41.763Z,1024.25
2023-01-28T07:36:41.729Z,1024.28
2023-01-28T07:37:41.727Z,1024.17
2023-01-28T07:38:41.710Z,1024.18
2023-01-28T07:39:41.692Z,1024.11
2023-01-28T07:40:41.704Z,1024.10
2023-01-28T07:41:41.700Z,1024.06
2023-01-28T07:42:41.673Z,1024.16
2023-01-28T07:43:41.658Z,1024.11
2023-01-28T07:44:41.665Z,1024.12
2023-01-28T07:45:41.639Z,1024.13
2023-01-28T07:46:41.620Z,1024.13
2023-01-28T07:47:41.639Z,1024.12
2023-01-28T07:48:41.609Z,1024.15
2023-01-28T07:49:41.587Z,1024.20
2023-01-28T07:50:41.594Z,1024.25
2023-01-28T07:51:41.572Z,1024.28
2023-01-28T07:52:41.564Z,1024.29
2023-01-28T07:53:41.571Z,1024.35
2023-01-28T07:54:41.594Z,1024.33
2023-01-28T07:55:41.537Z,1024.35
2023-01-28T07:56:41.532Z,1024.34
2023-01-28T07:57:41.514Z,1024.40
2023-01-28T07:58:41.654Z,1024.43
2023-01-28T07:59:41.480Z,1024.46
2023-01-28T08:00:41.486Z,1024.48
2023-01-28T08:01:42.537Z,1024.47
2023-01-28T08:02:42.309Z,1024.42
2023-01-28T08:03:41.480Z,1024.43
2023-01-28T08:04:41.588Z,1024.44
2023-01-28T08:05:41.472Z,1024.38
2023-01-28T08:06:41.410Z,1024.38
2023-01-28T08:07:41.400Z,1024.38
2023-01-28T08:08:41.391Z,1024.44
2023-01-28T08:09:41.403Z,1024.55
2023-01-28T08:10:41.380Z,1024.49
2023-01-28T08:11:41.366Z,1024.44
2023-01-28T08:12:41.347Z,1024.51
2023-01-28T08:13:41.338Z,1024.46
2023-01-28T08:14:41.337Z,1024.47
2023-01-28T08:15:41.406Z,1024.52
2023-01-28T08:16:41.313Z,1024.55
2023-01-28T08:17:41.291Z,1024.54
2023-01-28T08:18:41.314Z,1024.59
2023-01-28T08:19:41.279Z,1024.64
2023-01-28T08:20:41.268Z,1024.69
2023-01-28T08:21:41.249Z,1024.72
2023-01-28T08:22:41.248Z,1024.69
2023-01-28T08:23:41.260Z,1024.73
2023-01-28T08:24:41.219Z,1024.74
2023-01-28T08:25:41.208Z,1024.75
2023-01-28T08:26:41.192Z,1024.73
2023-01-28T08:27:41.192Z,1024.78
2023-01-28T08:28:41.183Z,1024.82
2023-01-28T08:29:41.189Z,1024.87
2023-01-28T08:30:41.218Z,1024.92
2023-01-28T08:31:41.210Z,1024.95
2023-01-28T08:32:41.132Z,1024.87
2023-01-28T08:33:41.164Z,1024.93
2023-01-28T08:34:41.114Z,1024.91
2023-01-28T08:35:41.130Z,1024.96
2023-01-28T08:36:41.101Z,1024.97
2023-01-28T08:37:41.082Z,1024.98
2023-01-28T08:38:41.100Z,1025.03
2023-01-28T08:39:41.062Z,1025.06
2023-01-28T08:40:41.076Z,1025.03
2023-01-28T08:41:41.074Z,1025.08
2023-01-28T08:42:41.031Z,1025.02
2023-01-28T08:43:41.021Z,1025.02
2023-01-28T08:44:41.035Z,1024.98
2023-01-28T08:45:41.009Z,1025.01
2023-01-28T08:46:41.015Z,1024.97
2023-01-28T08:47:40.973Z,1025.01
2023-01-28T08:48:40.972Z,1025.00
2023-01-28T08:49:40.951Z,1025.08
2023-01-28T08:50:40.990Z,1025.04
2023-01-28T08:51:40.929Z,1025.12
2023-01-28T08:52:40.940Z,1025.10
2023-01-28T08:53:40.915Z,1025.10
2023-01-28T08:54:40.931Z,1025.13
2023-01-28T08:55:40.892Z,1025.18
2023-01-28T08:56:40.878Z,1025.24
2023-01-28T08:57:40.877Z,1025.21
2023-01-28T08:58:40.858Z,1025.24
2023-01-28T08:59:40.870Z,1025.21
2023-01-28T09:00:40.851Z,1025.22
2023-01-28T09:01:40.938Z,1025.22
2023-01-28T09:02:40.825Z,1025.20
2023-01-28T09:03:40.848Z,1025.20
2023-01-28T09:04:40.789Z,1025.22
2023-01-28T09:05:40.814Z,1025.19
2023-01-28T09:06:40.781Z,1025.16
2023-01-28T09:07:40.781Z,1025.21
2023-01-28T09:08:40.748Z,1025.16
2023-01-28T09:09:40.748Z,1025.18
2023-01-28T09:10:40.727Z,1025.21
2023-01-28T09:11:40.750Z,1025.22
2023-01-28T09:12:40.720Z,1025.24
2023-01-28T09:13:40.712Z,1025.32
2023-01-28T09:14:40.690Z,1025.33
2023-01-28T09:15:40.752Z,1025.31
2023-01-28T09:16:40.681Z,1025.30
2023-01-28T09:17:40.660Z,1025.28
2023-01-28T09:18:40.653Z,1025.29
2023-01-28T09:19:40.644Z,1025.37
2023-01-28T09:20:40.632Z,1025.42
2023-01-28T09:21:40.629Z,1025.43
2023-01-28T09:22:40.643Z,1025.38
2023-01-28T09:23:40.589Z,1025.36
2023-01-28T09:24:40.589Z,1025.35
2023-01-28T09:25:40.579Z,1025.35
2023-01-28T09:26:40.562Z,1025.43
2023-01-28T09:27:40.559Z,1025.49
2023-01-28T09:28:40.569Z,1025.55
2023-01-28T09:29:40.521Z,1025.50
2023-01-28T09:30:40.557Z,1025.55
2023-01-28T09:31:40.541Z,1025.54
2023-01-28T09:32:40.499Z,1025.55
2023-01-28T09:33:40.511Z,1025.53
2023-01-28T09:34:40.486Z,1025.54
2023-01-28T09:35:40.461Z,1025.52
2023-01-28T09:36:40.449Z,1025.50
2023-01-28T09:37:40.438Z,1025.38
2023-01-28T09:38:40.469Z,1025.40
2023-01-28T09:39:40.452Z,1025.45
2023-01-28T09:40:40.405Z,1025.45
2023-01-28T09:41:40.390Z,1025.41
2023-01-28T09:42:40.391Z,1025.48
2023-01-28T09:43:40.402Z,1025.43
2023-01-28T09:44:40.378Z,1025.47
2023-01-28T09:45:40.363Z,1025.46
2023-01-28T09:46:40.372Z,1025.43
2023-01-28T09:47:40.330Z,1025.42
2023-01-28T09:48:40.343Z,1025.42
2023-01-28T09:49:40.314Z,1025.46
2023-01-28T09:50:40.331Z,1025.40
2023-01-28T09:51:40.296Z,1025.39
2023-01-28T09:52:40.280Z,1025.40
2023-01-28T09:53:40.271Z,1025.37
2023-01-28T09:54:40.285Z,1025.40
2023-01-28T09:55:40.293Z,1025.37
2023-01-28T09:56:40.265Z,1025.35
2023-01-28T09:57:40.239Z,1025.36
2023-01-28T09:58:40.219Z,1025.42
2023-01-28T09:59:40.229Z,1025.39
2023-01-28T10:00:40.260Z,1025.32
2023-01-28T10:01:40.192Z,1025.30
2023-01-28T10:02:40.197Z,1025.36
2023-01-28T10:03:40.193Z,1025.38
2023-01-28T10:04:40.179Z,1025.45
2023-01-28T10:05:41.015Z,1025.49
2023-01-28T10:06:40.128Z,1025.49
2023-01-28T10:07:40.110Z,1025.53
2023-01-28T10:08:40.114Z,1025.50
2023-01-28T10:09:40.099Z,1025.49
2023-01-28T10:10:40.109Z,1025.55
2023-01-28T10:11:40.078Z,1025.54
2023-01-28T10:12:40.081Z,1025.56
2023-01-28T10:13:40.060Z,1025.55
2023-01-28T10:14:40.040Z,1025.60
2023-01-28T10:15:40.039Z,1025.57
2023-01-28T10:16:40.049Z,1025.63
2023-01-28T10:17:40.047Z,1025.65
2023-01-28T10:18:39.993Z,1025.64
2023-01-28T10:19:39.993Z,1025.54
2023-01-28T10:20:39.982Z,1025.53
2023-01-28T10:21:39.992Z,1025.52
2023-01-28T10:22:39.951Z,1025.57
2023-01-28T10:23:39.962Z,1025.61
2023-01-28T10:24:39.941Z,1025.67
2023-01-28T10:25:39.929Z,1025.65
2023-01-28T10:26:39.915Z,1025.69
2023-01-28T10:27:39.920Z,1025.65
2023-01-28T10:28:39.889Z,1025.68
2023-01-28T10:29:39.899Z,1025.67
2023-01-28T10:30:39.899Z,1025.70
2023-01-28T10:31:39.955Z,1025.71
2023-01-28T10:32:39.850Z,1025.70
2023-01-28T10:33:39.866Z,1025.71
2023-01-28T10:34:39.830Z,1025.65
2023-01-28T10:35:39.857Z,1025.67
2023-01-28T10:36:39.962Z,1025.69
2023-01-28T10:37:39.825Z,1025.65
2023-01-28T10:38:39.801Z,1025.65
2023-01-28T10:39:39.774Z,1025.64
2023-01-28T10:40:39.759Z,1025.63
2023-01-28T10:41:51.887Z,1025.64
2023-01-28T10:42:40.741Z,1025.65
2023-01-28T10:43:39.749Z,1025.64
2023-01-28T10:44:39.718Z,1025.71
2023-01-28T10:45:39.753Z,1025.75
2023-01-28T10:46:39.698Z,1025.73
2023-01-28T10:47:39.714Z,1025.68
2023-01-28T10:48:39.716Z,1025.64
2023-01-28T10:49:39.672Z,1025.58
2023-01-28T10:50:39.653Z,1025.58
2023-01-28T10:51:39.665Z,1025.54
2023-01-28T10:52:39.640Z,1025.55
2023-01-28T10:53:39.619Z,1025.53
2023-01-28T10:54:39.690Z,1025.59
2023-01-28T10:55:39.604Z,1025.65
2023-01-28T10:56:39.589Z,1025.65
2023-01-28T10:57:39.687Z,1025.70
2023-01-28T10:58:39.568Z,1025.68
2023-01-28T10:59:39.561Z,1025.62
2023-01-28T11:00:39.549Z,1025.58
2023-01-28T11:01:39.537Z,1025.50
2023-01-28T11:02:39.589Z,1025.48
2023-01-28T11:03:39.541Z,1025.40
2023-01-28T11:04:39.521Z,1025.38
2023-01-28T11:05:39.492Z,1025.41
2023-01-28T11:06:39.488Z,1025.39
2023-01-28T11:07:39.472Z,1025.35
2023-01-28T11:08:39.459Z,1025.29
2023-01-28T11:09:39.452Z,1025.26
2023-01-28T11:10:39.452Z,1025.30
2023-01-28T11:11:39.421Z,1025.28
2023-01-28T11:12:39.427Z,1025.27
2023-01-28T11:13:39.401Z,1025.22
2023-01-28T11:14:39.421Z,1025.16
2023-01-28T11:15:39.382Z,1025.19
2023-01-28T11:16:39.374Z,1025.16
2023-01-28T11:17:39.395Z,1025.24
2023-01-28T11:18:39.360Z,1025.20
2023-01-28T11:19:39.342Z,1025.16
2023-01-28T11:20:39.356Z,1025.17
2023-01-28T11:21:39.321Z,1025.20
2023-01-28T11:22:39.321Z,1025.16
2023-01-28T11:23:39.290Z,1025.10
2023-01-28T11:24:39.309Z,1025.12
2023-01-28T11:25:39.291Z,1025.13
2023-01-28T11:26:39.277Z,1025.09
2023-01-28T11:27:39.278Z,1025.13
2023-01-28T11:28:39.240Z,1025.14
2023-01-28T11:29:39.244Z,1025.12
2023-01-28T11:30:39.228Z,1025.15
2023-01-28T11:31:39.301Z,1025.12
2023-01-28T11:32:39.220Z,1025.07
2023-01-28T11:33:39.215Z,1025.02
2023-01-28T11:34:39.180Z,1025.03
2023-01-28T11:35:39.165Z,1025.01
2023-01-28T11:36:39.154Z,1025.02
2023-01-28T11:37:39.172Z,1024.90
2023-01-28T11:38:39.132Z,1024.90
2023-01-28T11:39:39.147Z,1024.79
2023-01-28T11:40:39.103Z,1024.78
2023-01-28T11:41:39.127Z,1024.80
2023-01-28T11:42:39.091Z,1024.78
2023-01-28T11:43:39.092Z,1024.82
2023-01-28T11:44:39.069Z,1024.85
2023-01-28T11:45:39.075Z,1024.94
2023-01-28T11:46:39.042Z,1024.87
2023-01-28T11:47:39.052Z,1024.82
2023-01-28T11:48:39.021Z,1024.73
2023-01-28T11:49:39.261Z,1024.76
2023-01-28T11:50:39.002Z,1024.71
2023-01-28T11:51:38.992Z,1024.74
2023-01-28T11:53:05.051Z,1024.67
2023-01-28T11:53:40.001Z,1024.67
2023-01-28T11:54:38.960Z,1024.70
2023-01-28T11:55:38.943Z,1024.78
2023-01-28T11:56:38.932Z,1024.78
2023-01-28T11:57:38.992Z,1024.84
2023-01-28T11:58:38.932Z,1024.86
2023-01-28T11:59:38.937Z,1024.81
2023-01-28T12:00:38.892Z,1024.84
2023-01-28T12:01:38.890Z,1024.81
2023-01-28T12:02:46.697Z,1024.74
2023-01-28T12:03:38.859Z,1024.66
2023-01-28T12:04:38.955Z,1024.60
2023-01-28T12:05:38.847Z,1024.52